createdAt,value
2019-04-10T00:00:35.724Z,5.10
2019-04-10T00:03:06.057Z,5.10
2019-04-10T00:05:34.823Z,5.00
2019-04-10T00:08:04.000Z,4.90
2019-04-10T00:10:32.684Z,4.80
2019-04-10T00:13:02.456Z,4.80
2019-04-10T00:15:31.020Z,4.70
2019-04-10T00:17:59.817Z,4.60
2019-04-10T00:20:28.792Z,4.60
2019-04-10T00:22:58.230Z,4.50
2019-04-10T00:25:26.881Z,4.50
2019-04-10T00:27:55.344Z,4.40
2019-04-10T00:30:24.978Z,4.40
2019-04-10T00:32:54.444Z,4.40
2019-04-10T00:35:23.586Z,4.40
2019-04-10T00:37:52.151Z,4.50
2019-04-10T00:40:21.426Z,4.50
2019-04-10T00:42:49.916Z,4.40
2019-04-10T00:45:19.453Z,4.40
2019-04-10T00:47:48.018Z,4.40
2019-04-10T00:50:16.483Z,4.30
2019-04-10T00:52:44.955Z,4.30
2019-04-10T00:55:13.517Z,4.30
2019-04-10T00:57:41.961Z,4.20
2019-04-10T01:00:10.792Z,4.20
2019-04-10T01:02:39.393Z,4.20
2019-04-10T01:05:08.980Z,4.10
2019-04-10T01:07:40.957Z,4.10
2019-04-10T01:10:08.250Z,4.10
2019-04-10T01:12:36.861Z,4.00
2019-04-10T01:15:06.707Z,4.00
2019-04-10T01:17:35.260Z,3.90
2019-04-10T01:20:05.760Z,3.90
2019-04-10T01:22:35.050Z,3.80
2019-04-10T01:25:04.357Z,3.70
2019-04-10T01:27:32.828Z,3.80
2019-04-10T01:30:02.356Z,3.70
2019-04-10T01:32:32.724Z,3.60
2019-04-10T01:35:02.657Z,3.60
2019-04-10T01:37:31.120Z,3.70
2019-04-10T01:39:59.592Z,3.60
2019-04-10T01:42:28.404Z,3.60
2019-04-10T01:44:57.330Z,3.60
2019-04-10T01:47:26.851Z,3.50
2019-04-10T01:49:55.781Z,3.50
2019-04-10T01:52:24.825Z,3.50
2019-04-10T01:54:53.506Z,3.50
2019-04-10T01:57:22.008Z,3.40
2019-04-10T01:59:50.522Z,3.50
2019-04-10T02:02:23.714Z,3.50
2019-04-10T02:04:53.755Z,3.50
2019-04-10T02:07:23.134Z,3.50
2019-04-10T02:09:51.988Z,3.50
2019-04-10T02:12:20.741Z,3.60
2019-04-10T02:14:49.290Z,3.60
2019-04-10T02:17:17.727Z,3.50
2019-04-10T02:19:46.208Z,3.60
2019-04-10T02:22:14.648Z,3.60
2019-04-10T02:24:43.142Z,3.70
2019-04-10T02:27:11.637Z,3.70
2019-04-10T02:29:40.107Z,3.70
2019-04-10T02:32:10.143Z,3.80
2019-04-10T02:34:39.291Z,3.80
2019-04-10T02:37:08.655Z,3.80
2019-04-10T02:39:42.402Z,3.80
2019-04-10T02:42:08.230Z,3.80
2019-04-10T02:44:37.707Z,3.80
2019-04-10T02:47:06.493Z,3.80
2019-04-10T02:49:36.480Z,3.80
2019-04-10T02:52:06.670Z,3.80
2019-04-10T02:54:35.815Z,3.70
2019-04-10T02:57:05.496Z,3.70
2019-04-10T02:59:35.177Z,3.70
2019-04-10T03:02:04.315Z,3.70
2019-04-10T03:04:33.193Z,3.70
2019-04-10T03:07:02.188Z,3.70
2019-04-10T03:09:47.342Z,3.70
2019-04-10T03:12:01.500Z,3.70
2019-04-10T03:14:30.097Z,3.70
2019-04-10T03:16:59.695Z,3.70
2019-04-10T03:19:28.378Z,3.60
2019-04-10T03:21:57.659Z,3.60
2019-04-10T03:24:27.384Z,3.60
2019-04-10T03:26:56.167Z,3.50
2019-04-10T03:29:24.746Z,3.50
2019-04-10T03:31:56.489Z,3.50
2019-04-10T03:34:26.100Z,3.50
2019-04-10T03:36:56.026Z,3.50
2019-04-10T03:39:25.684Z,3.40
2019-04-10T03:41:54.670Z,3.30
2019-04-10T03:44:23.215Z,3.30
2019-04-10T03:46:52.753Z,3.30
2019-04-10T03:49:22.114Z,3.20
2019-04-10T03:51:50.667Z,3.20
2019-04-10T03:54:19.149Z,3.20
2019-04-10T03:56:47.890Z,3.20
2019-04-10T03:59:16.431Z,3.20
2019-04-10T04:01:45.161Z,3.10
2019-04-10T04:04:13.748Z,3.10
2019-04-10T04:06:42.200Z,3.00
2019-04-10T04:09:12.866Z,3.00
2019-04-10T04:11:41.906Z,3.00
2019-04-10T04:14:10.496Z,2.80
2019-04-10T04:16:39.389Z,2.80
2019-04-10T04:19:08.050Z,2.70
2019-04-10T04:21:36.600Z,2.60
2019-04-10T04:24:05.111Z,2.50
2019-04-10T04:26:33.576Z,2.40
2019-04-10T04:29:02.092Z,2.30
2019-04-10T04:31:31.220Z,2.30
2019-04-10T04:33:59.820Z,2.20
2019-04-10T04:36:28.693Z,2.10
2019-04-10T04:38:57.731Z,2.00
2019-04-10T04:41:27.373Z,2.00
2019-04-10T04:43:55.917Z,2.00
2019-04-10T04:46:24.390Z,2.00
2019-04-10T04:48:52.828Z,1.90
2019-04-10T04:51:21.929Z,1.90
2019-04-10T04:53:50.607Z,1.90
2019-04-10T04:56:19.933Z,1.80
2019-04-10T04:58:49.614Z,1.90
2019-04-10T05:01:18.993Z,1.90
2019-04-10T05:03:48.436Z,1.90
2019-04-10T05:06:18.045Z,2.00
2019-04-10T05:08:46.664Z,1.90
2019-04-10T05:11:15.132Z,2.00
2019-04-10T05:13:43.640Z,2.10
2019-04-10T05:16:12.366Z,2.00
2019-04-10T05:18:40.845Z,2.10
2019-04-10T05:23:36.195Z,2.10
2019-04-10T05:26:04.708Z,2.30
2019-04-10T05:28:33.174Z,2.40
2019-04-10T05:31:01.620Z,2.50
2019-04-10T05:33:31.013Z,2.60
2019-04-10T05:35:59.616Z,2.80
2019-04-10T05:38:29.061Z,2.90
2019-04-10T05:40:57.712Z,3.00
2019-04-10T05:43:26.148Z,2.80
2019-04-10T05:45:55.146Z,3.00
2019-04-10T05:48:24.957Z,3.30
2019-04-10T05:51:01.285Z,3.30
2019-04-10T05:53:24.614Z,3.10
2019-04-10T05:55:53.804Z,2.70
2019-04-10T05:58:22.345Z,2.70
2019-04-10T06:00:51.460Z,2.70
2019-04-10T06:03:20.709Z,2.70
2019-04-10T06:05:49.349Z,2.60
2019-04-10T06:08:18.126Z,2.80
2019-04-10T06:10:47.733Z,2.80
2019-04-10T06:13:17.174Z,2.70
2019-04-10T06:15:45.699Z,2.80
2019-04-10T06:18:15.072Z,2.80
2019-04-10T06:20:45.161Z,2.80
2019-04-10T06:23:14.773Z,2.60
2019-04-10T06:25:43.651Z,2.70
2019-04-10T06:28:12.921Z,2.90
2019-04-10T06:30:41.884Z,3.10
2019-04-10T06:33:11.627Z,3.90
2019-04-10T06:35:40.248Z,5.00
2019-04-10T06:38:08.723Z,5.70
2019-04-10T06:40:37.681Z,5.90
2019-04-10T06:43:06.579Z,5.80
2019-04-10T06:45:35.735Z,6.00
2019-04-10T06:48:04.289Z,6.40
2019-04-10T06:50:32.905Z,6.00
2019-04-10T06:53:01.747Z,5.40
2019-04-10T06:55:30.311Z,5.10
2019-04-10T06:57:59.353Z,4.60
2019-04-10T07:00:28.627Z,4.50
2019-04-10T07:02:57.205Z,4.70
2019-04-10T07:05:37.019Z,4.20
2019-04-10T07:08:05.761Z,4.10
2019-04-10T07:10:33.558Z,4.10
2019-04-10T07:12:56.530Z,4.00
2019-04-10T07:15:25.633Z,4.00
2019-04-10T07:17:55.375Z,3.90
2019-04-10T07:20:24.173Z,3.80
2019-04-10T07:22:53.343Z,3.80
2019-04-10T07:25:21.933Z,3.80
2019-04-10T07:27:50.376Z,3.70
2019-04-10T07:30:19.465Z,3.80
2019-04-10T07:32:49.208Z,3.80
2019-04-10T07:35:20.291Z,3.90
2019-04-10T07:37:51.609Z,3.70
2019-04-10T07:40:18.636Z,3.30
2019-04-10T07:42:48.275Z,3.60
2019-04-10T07:45:17.328Z,3.80
2019-04-10T07:47:46.207Z,4.10
2019-04-10T07:50:16.400Z,4.40
2019-04-10T07:52:45.892Z,4.70
2019-04-10T07:55:14.967Z,4.80
2019-04-10T07:57:47.134Z,4.80
2019-04-10T08:00:16.106Z,5.40
2019-04-10T08:02:44.830Z,5.30
2019-04-10T08:05:13.499Z,5.50
2019-04-10T08:07:42.971Z,5.50
2019-04-10T08:10:12.092Z,5.50
2019-04-10T08:12:47.349Z,5.70
2019-04-10T08:15:11.253Z,5.70
2019-04-10T08:17:40.809Z,5.40
2019-04-10T08:20:10.096Z,5.70
2019-04-10T08:22:39.325Z,5.60
2019-04-10T08:25:08.911Z,6.40
2019-04-10T08:27:38.477Z,5.90
2019-04-10T08:30:10.783Z,5.50
2019-04-10T08:32:50.885Z,5.00
2019-04-10T08:35:09.159Z,4.70
2019-04-10T08:37:38.937Z,4.50
2019-04-10T08:40:09.630Z,4.30
2019-04-10T08:42:40.152Z,4.30
2019-04-10T08:45:09.232Z,4.40
2019-04-10T08:47:37.840Z,4.70
2019-04-10T08:50:07.864Z,5.10
2019-04-10T08:52:37.030Z,5.20
2019-04-10T08:55:06.064Z,5.30
2019-04-10T08:57:34.576Z,5.30
2019-04-10T09:00:04.635Z,5.10
2019-04-10T09:02:33.864Z,5.10
2019-04-10T09:05:03.524Z,5.30
2019-04-10T09:07:32.556Z,5.50
2019-04-10T09:10:01.866Z,5.70
2019-04-10T09:12:31.554Z,5.40
2019-04-10T09:15:02.882Z,5.30
2019-04-10T09:17:31.468Z,5.30
2019-04-10T09:20:00.608Z,5.20
2019-04-10T09:22:41.870Z,5.60
2019-04-10T09:25:00.580Z,5.80
2019-04-10T09:27:29.228Z,6.20
2019-04-10T09:29:57.775Z,6.30
2019-04-10T09:32:26.491Z,6.10
2019-04-10T09:34:56.064Z,5.80
2019-04-10T09:37:24.660Z,5.90
2019-04-10T09:39:54.654Z,6.30
2019-04-10T09:42:23.702Z,6.80
2019-04-10T09:44:52.826Z,6.80
2019-04-10T09:47:21.481Z,6.80
2019-04-10T09:49:49.957Z,6.70
2019-04-10T09:52:18.695Z,6.50
2019-04-10T09:54:47.340Z,6.50
2019-04-10T09:57:15.803Z,6.30
2019-04-10T09:59:45.569Z,6.30
2019-04-10T10:02:16.082Z,6.30
2019-04-10T10:04:44.626Z,6.30
2019-04-10T10:07:13.105Z,6.50
2019-04-10T10:09:41.547Z,6.70
2019-04-10T10:12:10.187Z,6.90
2019-04-10T10:14:38.633Z,6.70
2019-04-10T10:17:07.110Z,6.70
2019-04-10T10:19:36.333Z,6.60
2019-04-10T10:22:06.075Z,6.70
2019-04-10T10:24:35.086Z,6.90
2019-04-10T10:27:03.596Z,6.90
2019-04-10T10:29:32.036Z,6.70
2019-04-10T10:32:02.476Z,6.80
2019-04-10T10:34:31.303Z,6.70
2019-04-10T10:37:03.607Z,6.80
2019-04-10T10:39:31.601Z,6.80
2019-04-10T10:44:38.372Z,6.80
2019-04-10T10:47:08.244Z,6.80
2019-04-10T10:49:36.832Z,7.10
2019-04-10T10:52:05.336Z,7.20
2019-04-10T10:54:34.883Z,7.20
2019-04-10T10:57:03.664Z,7.20
2019-04-10T10:59:32.128Z,7.00
2019-04-10T11:02:00.568Z,6.90
2019-04-10T11:04:29.608Z,7.00
2019-04-10T11:07:00.990Z,7.10
2019-04-10T11:09:28.550Z,7.00
2019-04-10T11:11:57.576Z,6.90
2019-04-10T11:14:26.120Z,7.00
2019-04-10T11:16:56.139Z,7.10
2019-04-10T11:19:24.884Z,7.00
2019-04-10T11:21:54.451Z,7.10
2019-04-10T11:24:23.279Z,7.10
2019-04-10T11:26:51.985Z,7.10
2019-04-10T11:29:21.967Z,7.20
2019-04-10T11:31:50.616Z,7.30
2019-04-10T11:34:19.089Z,7.00
2019-04-10T11:36:50.926Z,7.00
2019-04-10T11:39:25.386Z,6.90
2019-04-10T11:41:50.035Z,7.00
2019-04-10T11:44:20.317Z,7.10
2019-04-10T11:46:49.401Z,7.10
2019-04-10T11:49:20.222Z,7.20
2019-04-10T11:51:50.282Z,7.30
2019-04-10T11:54:23.526Z,7.40
2019-04-10T11:56:50.488Z,7.30
2019-04-10T11:59:21.965Z,7.60
2019-04-10T12:01:50.908Z,7.60
2019-04-10T12:04:20.045Z,7.70
2019-04-10T12:06:52.289Z,7.60
2019-04-10T12:10:02.035Z,7.50
2019-04-10T12:11:49.249Z,7.70
2019-04-10T12:14:17.690Z,7.80
2019-04-10T12:16:47.338Z,8.10
2019-04-10T12:19:15.907Z,8.10
2019-04-10T12:21:44.380Z,8.00
2019-04-10T12:24:12.826Z,7.90
2019-04-10T12:26:42.260Z,7.70
2019-04-10T12:29:10.973Z,8.00
2019-04-10T12:31:39.773Z,8.00
2019-04-10T12:34:08.799Z,8.20
2019-04-10T12:36:38.477Z,8.20
2019-04-10T12:39:09.144Z,8.10
2019-04-10T12:41:37.749Z,7.80
2019-04-10T12:44:07.393Z,7.90
2019-04-10T12:46:35.979Z,8.00
2019-04-10T12:49:05.321Z,8.00
2019-04-10T12:51:34.804Z,8.00
2019-04-10T12:54:04.527Z,8.10
2019-04-10T12:56:33.095Z,8.00
2019-04-10T12:59:02.127Z,8.10
2019-04-10T13:01:31.004Z,8.10
2019-04-10T13:04:01.093Z,8.00
2019-04-10T13:06:29.759Z,8.10
2019-04-10T13:09:07.412Z,8.10
2019-04-10T13:11:28.947Z,8.10
2019-04-10T13:13:58.239Z,8.30
2019-04-10T13:16:27.884Z,8.30
2019-04-10T13:18:56.587Z,8.30
2019-04-10T13:21:25.082Z,8.40
2019-04-10T13:23:53.523Z,8.60
2019-04-10T13:26:22.316Z,8.60
2019-04-10T13:28:51.787Z,8.40
2019-04-10T13:31:21.364Z,8.40
2019-04-10T13:33:50.979Z,8.30
2019-04-10T13:36:19.639Z,8.30
2019-04-10T13:38:48.567Z,8.20
2019-04-10T13:41:17.137Z,8.20
2019-04-10T13:43:46.388Z,8.00
2019-04-10T13:46:14.904Z,8.00
2019-04-10T13:48:43.372Z,7.90
2019-04-10T13:51:13.000Z,8.00
2019-04-10T13:53:41.905Z,8.10
2019-04-10T13:56:10.436Z,8.20
2019-04-10T13:58:38.936Z,8.10
2019-04-10T14:01:09.407Z,8.10
2019-04-10T14:03:40.038Z,8.10
2019-04-10T14:06:08.168Z,8.10
2019-04-10T14:08:56.044Z,8.10
2019-04-10T14:11:06.878Z,8.10
2019-04-10T14:13:35.868Z,8.10
2019-04-10T14:16:05.200Z,8.20
2019-04-10T14:18:34.877Z,8.10
2019-04-10T14:21:09.719Z,8.00
2019-04-10T14:23:33.708Z,8.00
2019-04-10T14:26:12.627Z,8.00
2019-04-10T14:28:41.137Z,8.10
2019-04-10T14:31:29.408Z,8.30
2019-04-10T14:33:58.419Z,8.30
2019-04-10T14:36:27.690Z,8.10
2019-04-10T14:39:08.600Z,8.20
2019-04-10T14:41:27.500Z,8.10
2019-04-10T14:43:56.189Z,8.30
2019-04-10T14:46:24.661Z,8.30
2019-04-10T14:48:53.119Z,8.30
2019-04-10T14:51:21.988Z,8.20
2019-04-10T14:53:51.137Z,8.00
2019-04-10T14:56:19.913Z,8.00
2019-04-10T14:58:48.432Z,8.00
2019-04-10T15:01:17.743Z,8.10
2019-04-10T15:03:46.686Z,8.10
2019-04-10T15:06:15.467Z,8.10
2019-04-10T15:08:43.966Z,8.10
2019-04-10T15:11:12.536Z,8.00
2019-04-10T15:13:42.305Z,7.90
2019-04-10T15:16:10.928Z,8.00
2019-04-10T15:18:39.399Z,7.90
2019-04-10T15:21:07.873Z,8.00
2019-04-10T15:23:36.312Z,8.10
2019-04-10T15:26:05.974Z,8.10
2019-04-10T15:28:34.588Z,8.10
2019-04-10T15:31:03.426Z,8.10
2019-04-10T15:33:31.980Z,8.10
2019-04-10T15:36:00.424Z,8.20
2019-04-10T15:38:28.864Z,8.30
2019-04-10T15:40:57.342Z,8.10
2019-04-10T15:43:26.847Z,8.00
2019-04-10T15:45:56.853Z,8.00
2019-04-10T15:48:25.373Z,7.90
2019-04-10T15:50:53.887Z,7.80
2019-04-10T15:53:22.385Z,7.70
2019-04-10T15:55:51.676Z,7.70
2019-04-10T15:58:21.407Z,7.60
2019-04-10T16:00:50.381Z,7.60
2019-04-10T16:03:19.549Z,7.50
2019-04-10T16:05:48.161Z,7.50
2019-04-10T16:08:18.311Z,7.40
2019-04-10T16:10:51.066Z,7.40
2019-04-10T16:13:21.984Z,7.40
2019-04-10T16:15:50.570Z,7.30
2019-04-10T16:18:21.080Z,7.20
2019-04-10T16:20:51.258Z,7.10
2019-04-10T16:23:21.933Z,7.20
2019-04-10T16:25:52.488Z,7.20
2019-04-10T16:28:21.188Z,7.20
2019-04-10T16:30:50.773Z,7.20
2019-04-10T16:33:19.310Z,7.20
2019-04-10T16:35:48.284Z,7.20
2019-04-10T16:38:16.936Z,7.30
2019-04-10T16:40:45.886Z,7.20
2019-04-10T16:43:14.539Z,7.20
2019-04-10T16:45:43.242Z,7.10
2019-04-10T16:48:11.758Z,7.10
2019-04-10T16:50:40.220Z,7.00
2019-04-10T16:53:09.776Z,6.90
2019-04-10T16:55:38.419Z,6.90
2019-04-10T16:58:07.599Z,6.90
2019-04-10T17:00:37.567Z,6.80
2019-04-10T17:03:06.381Z,6.80
2019-04-10T17:05:35.175Z,6.80
2019-04-10T17:08:03.768Z,6.60
2019-04-10T17:10:32.452Z,6.60
2019-04-10T17:13:00.996Z,6.60
2019-04-10T17:15:30.209Z,6.60
2019-04-10T17:17:59.000Z,6.60
2019-04-10T17:20:28.796Z,6.60
2019-04-10T17:22:58.400Z,6.60
2019-04-10T17:25:28.346Z,6.50
2019-04-10T17:27:56.891Z,6.40
2019-04-10T17:30:25.506Z,6.40
2019-04-10T17:32:54.306Z,6.30
2019-04-10T17:35:27.480Z,6.20
2019-04-10T17:37:56.223Z,6.20
2019-04-10T17:40:31.840Z,6.10
2019-04-10T17:42:54.928Z,6.10
2019-04-10T17:45:25.491Z,6.10
2019-04-10T17:47:55.261Z,6.00
2019-04-10T17:50:24.631Z,5.90
2019-04-10T17:52:53.428Z,5.80
2019-04-10T17:55:23.084Z,5.80
2019-04-10T17:57:54.145Z,5.70
2019-04-10T18:00:40.007Z,5.70
2019-04-10T18:03:08.554Z,5.60
2019-04-10T18:05:37.165Z,5.50
2019-04-10T18:08:06.241Z,5.50
2019-04-10T18:10:46.515Z,5.40
2019-04-10T18:13:06.054Z,5.30
2019-04-10T18:15:35.722Z,5.30
2019-04-10T18:18:05.311Z,5.30
2019-04-10T18:20:33.965Z,5.20
2019-04-10T18:23:03.014Z,5.10
2019-04-10T18:25:31.548Z,5.00
2019-04-10T18:28:01.920Z,5.00
2019-04-10T18:30:32.823Z,5.00
2019-04-10T18:33:03.163Z,4.90
2019-04-10T18:35:32.434Z,4.90
2019-04-10T18:38:01.537Z,4.90
2019-04-10T18:40:30.062Z,4.80
2019-04-10T18:42:59.444Z,4.80
2019-04-10T18:45:30.027Z,4.70
2019-04-10T18:47:58.646Z,4.60
2019-04-10T18:50:27.081Z,4.60
2019-04-10T18:52:56.065Z,4.50
2019-04-10T18:55:24.632Z,4.50
2019-04-10T18:57:53.124Z,4.50
2019-04-10T19:00:40.706Z,4.40
2019-04-10T19:03:29.734Z,4.40
2019-04-10T19:06:02.721Z,4.30
2019-04-10T19:08:32.110Z,4.30
2019-04-10T19:11:10.573Z,4.40
2019-04-10T19:13:30.940Z,4.30
2019-04-10T19:16:01.375Z,4.30
2019-04-10T19:18:29.954Z,4.20
2019-04-10T19:20:59.089Z,4.20
2019-04-10T19:23:29.130Z,4.10
2019-04-10T19:25:58.782Z,4.10
2019-04-10T19:28:32.273Z,4.00
2019-04-10T19:31:08.636Z,4.00
2019-04-10T19:33:31.085Z,4.00
2019-04-10T19:36:01.561Z,3.90
2019-04-10T19:38:30.104Z,4.00
2019-04-10T19:40:58.575Z,3.90
2019-04-10T19:43:28.899Z,3.90
2019-04-10T19:45:58.426Z,3.80
2019-04-10T19:48:27.664Z,3.70
2019-04-10T19:50:57.359Z,3.80
2019-04-10T19:53:27.069Z,3.90
2019-04-10T19:55:56.019Z,3.90
2019-04-10T19:58:24.583Z,3.80
2019-04-10T20:00:53.356Z,3.80
2019-04-10T20:03:21.827Z,3.70
2019-04-10T20:05:51.239Z,3.70
2019-04-10T20:08:19.823Z,3.70
2019-04-10T20:10:48.261Z,3.70
2019-04-10T20:13:16.732Z,3.60
2019-04-10T20:15:45.188Z,3.70
2019-04-10T20:18:14.655Z,3.70
2019-04-10T20:20:43.680Z,3.70
2019-04-10T20:23:12.771Z,3.70
2019-04-10T20:25:42.879Z,3.70
2019-04-10T20:28:12.256Z,3.60
2019-04-10T20:30:40.865Z,3.50
2019-04-10T20:33:10.330Z,3.50
2019-04-10T20:35:39.060Z,3.50
2019-04-10T20:38:07.504Z,3.50
2019-04-10T20:40:36.131Z,3.40
2019-04-10T20:43:04.831Z,3.40
2019-04-10T20:45:33.740Z,3.40
2019-04-10T20:48:02.402Z,3.40
2019-04-10T20:50:31.928Z,3.30
2019-04-10T20:53:01.893Z,3.30
2019-04-10T20:55:30.500Z,3.20
2019-04-10T20:57:59.690Z,3.20
2019-04-10T21:00:32.700Z,3.20
2019-04-10T21:03:01.276Z,3.10
2019-04-10T21:05:29.748Z,3.00
2019-04-10T21:07:58.224Z,3.00
2019-04-10T21:10:26.664Z,3.00
2019-04-10T21:12:55.137Z,2.90
2019-04-10T21:15:23.707Z,3.00
2019-04-10T21:17:52.874Z,3.00
2019-04-10T21:20:22.430Z,2.90
2019-04-10T21:22:51.461Z,2.90
2019-04-10T21:25:20.890Z,2.90
2019-04-10T21:27:51.911Z,2.80
2019-04-10T21:30:24.480Z,2.80
2019-04-10T21:32:55.798Z,2.70
2019-04-10T21:35:27.119Z,2.70
2019-04-10T21:37:55.628Z,2.70
2019-04-10T21:40:25.119Z,2.60
2019-04-10T21:42:53.970Z,2.60
2019-04-10T21:45:22.600Z,2.60
2019-04-10T21:47:52.231Z,2.60
2019-04-10T21:50:21.632Z,2.50
2019-04-10T21:52:50.069Z,2.50
2019-04-10T21:55:19.353Z,2.50
2019-04-10T21:57:48.885Z,2.40
2019-04-10T22:00:20.414Z,2.40
2019-04-10T22:02:49.237Z,2.40
2019-04-10T22:05:17.705Z,2.40
2019-04-10T22:07:48.257Z,2.30
2019-04-10T22:10:32.115Z,2.30
2019-04-10T22:13:01.590Z,2.30
2019-04-10T22:15:37.754Z,2.20
2019-04-10T22:18:07.287Z,2.20
2019-04-10T22:20:36.079Z,2.10
2019-04-10T22:23:04.773Z,2.10
2019-04-10T22:25:33.231Z,2.00
2019-04-10T22:28:04.284Z,2.00
2019-04-10T22:30:33.096Z,1.90
2019-04-10T22:33:01.535Z,1.90
2019-04-10T22:35:31.100Z,1.90
2019-04-10T22:38:00.391Z,1.80
2019-04-10T22:40:29.182Z,1.80
2019-04-10T22:42:57.660Z,1.70
2019-04-10T22:45:30.767Z,1.70
2019-04-10T22:48:00.579Z,1.70
2019-04-10T22:50:29.364Z,1.60
2019-04-10T22:52:59.087Z,1.60
2019-04-10T22:55:28.143Z,1.50
2019-04-10T22:57:56.951Z,1.50
2019-04-10T23:00:27.982Z,1.50
2019-04-10T23:02:57.267Z,1.50
2019-04-10T23:05:26.765Z,1.50
2019-04-10T23:07:55.599Z,1.50
2019-04-10T23:10:24.784Z,1.40
2019-04-10T23:12:59.989Z,1.40
2019-04-10T23:15:23.740Z,1.40
2019-04-10T23:17:52.831Z,1.40
2019-04-10T23:20:21.524Z,1.40
2019-04-10T23:22:50.694Z,1.30
2019-04-10T23:25:20.425Z,1.30
2019-04-10T23:27:51.977Z,1.30
2019-04-10T23:30:19.976Z,1.30
2019-04-10T23:32:49.052Z,1.20
2019-04-10T23:35:17.631Z,1.20
2019-04-10T23:37:46.917Z,1.20
2019-04-10T23:40:16.755Z,1.10
2019-04-10T23:42:46.352Z,1.10
2019-04-10T23:45:15.574Z,1.10
2019-04-10T23:47:44.458Z,1.10
2019-04-10T23:50:15.010Z,1.10
2019-04-10T23:52:44.333Z,1.00
2019-04-10T23:55:13.630Z,0.90
2019-04-10T23:57:43.232Z,0.90
